Time;durP1;ratioP1;P1;durP2;ratioP2;P2;SDS_P1;SDS_P2;PMS_P1;PMS_P2;Temp;Humidity;BMP_temperature;BMP_pressure;BME280_temperature;BME280_humidity;BME280_pressure;Samples;Min_cycle;Max_cycle;Signal;HPM_P1;HPM_P2
2023/11/10 00:02:32;;;;;;;1.65;0.70;;;7.00;99.90;;;;;;15583594;22;20035;-34
2023/11/10 00:09:04;;;;;;;3.35;0.80;;;7.10;99.90;;;;;;15583841;22;20024;-34
2023/11/10 00:15:31;;;;;;;1.45;0.77;;;7.10;99.90;;;;;;15580222;22;20611;-34
2023/11/10 00:21:56;;;;;;;2.15;0.70;;;7.00;99.90;;;;;;15578354;22;20027;-34
2023/11/10 00:28:29;;;;;;;2.85;0.80;;;7.10;99.90;;;;;;15580542;22;20481;-34
2023/11/10 00:34:57;;;;;;;2.75;0.88;;;7.10;99.90;;;;;;15579333;22;20098;-35
2023/11/10 00:41:25;;;;;;;2.85;1.13;;;7.10;99.90;;;;;;15553594;22;20022;-34
2023/11/10 00:47:55;;;;;;;2.50;0.93;;;7.10;99.90;;;;;;15577184;22;20126;-34
2023/11/10 00:54:26;;;;;;;6.80;0.82;;;7.10;99.90;;;;;;15577621;22;20015;-34
2023/11/10 01:01:00;;;;;;;2.35;1.20;;;7.10;99.90;;;;;;15555949;22;20024;-34
2023/11/10 01:07:30;;;;;;;2.70;1.27;;;7.10;99.90;;;;;;15578247;22;20020;-34
2023/11/10 01:13:54;;;;;;;3.90;1.27;;;7.00;99.90;;;;;;15576789;22;20020;-34
2023/11/10 01:20:18;;;;;;;1.85;0.90;;;7.00;99.90;;;;;;15578138;22;20019;-34
2023/11/10 01:27:03;;;;;;;4.22;1.08;;;7.10;99.90;;;;;;15576849;22;20024;-34
2023/11/10 01:33:50;;;;;;;6.82;0.93;;;7.10;99.90;;;;;;15556733;22;20016;-34
2023/11/10 01:40:24;;;;;;;4.50;1.07;;;7.10;99.90;;;;;;15579567;22;20091;-34
2023/11/10 01:47:08;;;;;;;3.72;0.95;;;7.10;99.90;;;;;;15578104;22;20035;-34
2023/11/10 01:53:45;;;;;;;2.23;0.60;;;7.10;99.90;;;;;;15577729;22;20323;-34
2023/11/10 02:00:31;;;;;;;3.17;0.70;;;7.20;99.90;;;;;;15575969;22;20051;-34
2023/11/10 02:07:07;;;;;;;4.68;0.88;;;7.10;99.90;;;;;;15576989;22;20035;-34
2023/11/10 02:13:37;;;;;;;5.75;0.93;;;7.20;99.90;;;;;;15578726;22;20015;-34
2023/11/10 02:20:15;;;;;;;4.32;1.00;;;7.10;99.90;;;;;;15575512;22;20031;-34
2023/11/10 02:26:57;;;;;;;3.70;0.88;;;7.00;99.90;;;;;;15578071;22;20030;-34
2023/11/10 02:33:42;;;;;;;5.13;0.70;;;7.10;99.90;;;;;;15582823;22;20408;-34
2023/11/10 02:40:25;;;;;;;3.08;0.68;;;6.90;99.90;;;;;;15560253;22;20031;-34
2023/11/10 02:46:54;;;;;;;5.07;0.70;;;6.90;99.90;;;;;;15581665;22;20019;-34
2023/11/10 02:53:38;;;;;;;5.13;0.77;;;6.90;99.90;;;;;;15553687;22;20034;-34
2023/11/10 03:00:09;;;;;;;3.75;0.60;;;6.80;99.90;;;;;;15576210;22;20069;-34
2023/11/10 03:06:40;;;;;;;5.75;0.77;;;6.90;99.90;;;;;;15581356;22;20024;-34
2023/11/10 03:13:07;;;;;;;4.47;0.70;;;6.90;99.90;;;;;;15580604;22;20030;-34
2023/11/10 03:19:37;;;;;;;5.00;0.60;;;6.90;99.90;;;;;;15579483;22;20026;-34
2023/11/10 03:26:12;;;;;;;3.58;0.55;;;6.90;99.90;;;;;;15556447;22;20369;-34
2023/11/10 03:32:53;;;;;;;4.07;0.70;;;6.90;99.90;;;;;;15579861;22;20349;-34
2023/11/10 03:39:24;;;;;;;3.17;0.60;;;6.80;99.90;;;;;;15580125;22;20481;-34
2023/11/10 03:46:08;;;;;;;5.47;0.65;;;6.90;99.90;;;;;;15579603;22;20491;-34
2023/11/10 03:52:50;;;;;;;4.13;0.70;;;6.90;99.90;;;;;;15557560;22;20081;-34
2023/11/10 03:59:26;;;;;;;1.48;0.40;;;6.90;99.90;;;;;;15582535;22;20027;-33
2023/11/10 04:06:09;;;;;;;1.30;0.50;;;7.00;99.90;;;;;;15568974;22;20020;-34
2023/11/10 04:12:47;;;;;;;4.28;0.57;;;7.00;99.90;;;;;;15581286;22;20035;-34
2023/11/10 04:19:20;;;;;;;2.10;0.40;;;6.90;99.90;;;;;;15578655;22;20019;-34
2023/11/10 04:25:54;;;;;;;2.58;0.60;;;6.90;99.90;;;;;;15555940;22;20023;-34
2023/11/10 04:32:23;;;;;;;2.60;0.50;;;6.90;99.90;;;;;;15578285;22;20027;-34
2023/11/10 04:39:13;;;;;;;1.85;0.40;;;6.80;99.90;;;;;;15578970;22;20484;-33
2023/11/10 04:46:02;;;;;;;1.98;0.40;;;6.80;99.90;;;;;;15558604;22;20031;-33
2023/11/10 04:52:27;;;;;;;0.93;0.38;;;6.80;99.90;;;;;;15579364;22;20019;-34
2023/11/10 04:59:00;;;;;;;2.65;0.40;;;6.80;99.90;;;;;;15578474;22;20023;-34
2023/11/10 05:05:27;;;;;;;3.22;0.40;;;6.90;99.90;;;;;;15580528;22;20061;-34
2023/11/10 05:12:09;;;;;;;3.25;0.65;;;6.90;99.90;;;;;;15578320;22;20030;-33
2023/11/10 05:18:45;;;;;;;8.98;1.27;;;6.90;99.90;;;;;;15578941;22;20049;-34
2023/11/10 05:25:25;;;;;;;2.70;0.60;;;6.90;99.90;;;;;;15577717;22;20090;-34
2023/11/10 05:31:45;;;;;;;2.60;0.50;;;7.00;99.90;;;;;;15577477;22;20097;-34
2023/11/10 05:37:59;;;;;;;1.52;0.43;;;7.00;99.90;;;;;;15577504;22;20016;-34
2023/11/10 05:44:31;;;;;;;4.68;0.80;;;7.00;99.90;;;;;;15580307;22;20109;-34
2023/11/10 05:51:14;;;;;;;3.42;0.77;;;7.00;99.90;;;;;;15577590;22;20059;-34
2023/11/10 05:57:49;;;;;;;2.13;0.60;;;7.00;99.90;;;;;;15579161;22;20023;-34
2023/11/10 06:04:48;;;;;;;3.85;0.85;;;7.10;99.90;;;;;;15578584;22;20030;-34
2023/11/10 06:11:28;;;;;;;5.28;0.65;;;7.20;99.90;;;;;;15558788;22;20457;-34
2023/11/10 06:18:25;;;;;;;2.65;0.65;;;7.10;99.90;;;;;;15559827;22;20023;-34
2023/11/10 06:25:14;;;;;;;2.92;0.73;;;7.20;99.90;;;;;;15580241;22;20023;-34
2023/11/10 06:32:18;;;;;;;2.70;0.77;;;7.20;99.90;;;;;;15558418;22;20113;-34
2023/11/10 06:38:53;;;;;;;3.53;0.70;;;7.10;99.90;;;;;;15580170;22;20020;-35
2023/11/10 06:45:20;;;;;;;4.40;0.60;;;7.10;99.90;;;;;;15580756;22;20343;-33
2023/11/10 06:51:57;;;;;;;1.52;0.60;;;7.10;99.90;;;;;;15580203;22;20023;-34
2023/11/10 06:58:32;;;;;;;4.93;1.00;;;7.10;99.90;;;;;;15559084;22;20026;-34
2023/11/10 07:05:09;;;;;;;2.30;0.75;;;7.10;99.90;;;;;;15579914;22;20364;-35
2023/11/10 07:11:40;;;;;;;6.50;0.70;;;7.10;99.90;;;;;;15581561;22;20023;-34
2023/11/10 07:18:18;;;;;;;4.18;0.70;;;7.10;99.90;;;;;;15577502;22;20077;-34
2023/11/10 07:24:52;;;;;;;4.25;0.95;;;7.20;99.90;;;;;;15555633;22;20134;-34
2023/11/10 07:31:24;;;;;;;3.40;0.93;;;7.20;99.90;;;;;;15580020;22;20031;-34
2023/11/10 07:38:06;;;;;;;4.20;1.20;;;7.20;99.90;;;;;;15570287;22;20020;-34
2023/11/10 07:44:39;;;;;;;3.15;1.38;;;7.20;99.90;;;;;;15552796;22;20457;-34
2023/11/10 07:51:15;;;;;;;4.68;1.50;;;7.30;99.90;;;;;;15575647;22;20031;-34
2023/11/10 07:57:47;;;;;;;5.78;1.10;;;7.30;99.90;;;;;;15578620;22;20020;-34
2023/11/10 08:04:21;;;;;;;4.88;1.10;;;7.40;99.90;;;;;;15579575;22;20094;-34
2023/11/10 08:10:59;;;;;;;4.45;1.10;;;7.50;99.90;;;;;;15555779;22;20058;-34
2023/11/10 08:17:44;;;;;;;3.63;1.23;;;7.50;99.90;;;;;;15577314;22;20023;-34
2023/11/10 08:24:19;;;;;;;3.65;1.08;;;7.60;99.90;;;;;;15552582;22;20094;-33
2023/11/10 08:30:54;;;;;;;4.88;1.13;;;7.60;99.90;;;;;;15555070;22;20024;-34
2023/11/10 08:37:33;;;;;;;5.88;1.55;;;7.70;99.90;;;;;;15579414;22;20016;-34
2023/11/10 08:44:03;;;;;;;4.60;1.10;;;7.80;99.90;;;;;;15575809;22;20037;-34
2023/11/10 08:50:38;;;;;;;4.78;1.30;;;7.80;99.90;;;;;;15554776;22;20094;-34
2023/11/10 08:57:11;;;;;;;4.00;1.20;;;7.80;99.90;;;;;;15578711;22;20019;-34
2023/11/10 09:03:41;;;;;;;5.88;1.30;;;7.90;99.90;;;;;;15578963;22;20027;-34
2023/11/10 09:10:37;;;;;;;4.00;1.00;;;7.80;99.90;;;;;;15579829;22;20019;-34
2023/11/10 09:17:15;;;;;;;3.75;1.20;;;7.90;99.90;;;;;;15567423;22;20016;-34
2023/11/10 09:23:39;;;;;;;;;;;8.00;99.90;;;;;;15577722;22;20015;-33
2023/11/10 09:30:15;;;;;;;4.63;1.30;;;8.10;99.90;;;;;;15577513;22;19926;-34
2023/11/10 09:36:44;;;;;;;5.88;1.20;;;8.10;99.90;;;;;;15574549;22;20150;-34
2023/11/10 09:43:15;;;;;;;4.57;1.20;;;8.10;99.90;;;;;;15578020;22;20053;-33
2023/11/10 09:49:56;;;;;;;2.53;0.95;;;8.30;99.90;;;;;;15575933;22;20472;-34
2023/11/10 09:56:41;;;;;;;4.35;1.20;;;8.30;99.90;;;;;;15574417;22;20051;-34
2023/11/10 10:03:28;;;;;;;5.13;1.67;;;8.40;99.90;;;;;;15577508;22;20015;-34
2023/11/10 10:10:18;;;;;;;3.30;1.27;;;8.70;99.90;;;;;;15575285;22;20022;-34
2023/11/10 10:17:11;;;;;;;7.65;1.10;;;8.50;99.90;;;;;;15551184;22;20366;-34
2023/11/10 10:23:50;;;;;;;4.20;1.33;;;8.70;99.90;;;;;;15575044;22;20476;-34
2023/11/10 10:30:37;;;;;;;7.20;1.70;;;8.90;99.90;;;;;;15555368;22;20031;-34
2023/11/10 10:37:17;;;;;;;3.03;1.60;;;8.80;99.90;;;;;;15576238;22;20026;-34
2023/11/10 10:43:58;;;;;;;3.58;1.35;;;8.70;99.90;;;;;;15575043;22;20346;-34
2023/11/10 10:50:42;;;;;;;3.50;1.42;;;8.60;99.90;;;;;;15576908;22;20488;-33
2023/11/10 10:57:29;;;;;;;4.10;2.05;;;8.70;99.90;;;;;;15558867;22;20020;-34
2023/11/10 11:04:26;;;;;;;3.40;1.40;;;8.80;99.90;;;;;;15582593;22;20016;-34
2023/11/10 11:11:29;;;;;;;4.47;1.63;;;8.80;99.90;;;;;;15581371;22;20024;-34
2023/11/10 11:18:36;;;;;;;4.10;1.35;;;8.90;99.90;;;;;;15557311;22;20016;-34
2023/11/10 11:25:22;;;;;;;5.15;1.10;;;9.00;99.90;;;;;;15575566;22;20083;-34
2023/11/10 11:31:57;;;;;;;4.32;1.05;;;9.10;99.90;;;;;;15578883;22;20493;-34
2023/11/10 11:38:42;;;;;;;2.70;0.90;;;9.50;99.90;;;;;;15579370;22;20109;-34
2023/11/10 11:45:31;;;;;;;1.63;0.70;;;9.80;99.90;;;;;;15556131;22;20020;-34
2023/11/10 11:52:19;;;;;;;2.53;0.80;;;9.90;99.90;;;;;;15576726;22;20024;-33
2023/11/10 11:58:55;;;;;;;3.35;0.82;;;10.20;99.90;;;;;;15555935;22;20020;-34
2023/11/10 12:05:21;;;;;;;2.60;0.70;;;10.30;99.90;;;;;;15575515;22;20034;-34
2023/11/10 12:11:52;;;;;;;3.22;0.47;;;9.90;99.90;;;;;;15566513;22;20369;-34
2023/11/10 12:18:35;;;;;;;3.13;1.63;;;9.70;99.90;;;;;;15575528;22;20098;-34
2023/11/10 12:25:19;;;;;;;4.55;0.77;;;9.50;99.90;;;;;;15578727;22;20469;-34
2023/11/10 12:31:49;;;;;;;2.53;0.70;;;9.40;99.90;;;;;;15549082;22;20027;-33
2023/11/10 12:38:56;;;;;;;3.25;0.60;;;9.40;99.90;;;;;;15555590;22;20034;-34
2023/11/10 12:45:23;;;;;;;2.75;0.63;;;9.40;99.90;;;;;;15577231;22;20055;-34
2023/11/10 12:51:49;;;;;;;4.32;0.80;;;9.40;99.90;;;;;;15577086;22;20024;-33
2023/11/10 12:58:33;;;;;;;3.72;0.70;;;9.60;99.90;;;;;;15575787;22;20358;-34
2023/11/10 13:05:23;;;;;;;2.63;0.50;;;9.80;99.90;;;;;;15577378;22;20118;-34
2023/11/10 13:11:59;;;;;;;1.58;0.40;;;9.70;99.90;;;;;;15576201;22;20020;-34
2023/11/10 13:18:42;;;;;;;2.78;0.63;;;9.50;99.90;;;;;;15555346;22;20023;-33
2023/11/10 13:25:24;;;;;;;4.88;0.70;;;9.50;99.90;;;;;;15576322;22;20037;-34
2023/11/10 13:32:17;;;;;;;3.53;1.00;;;9.40;99.90;;;;;;15578740;22;20102;-34
2023/11/10 13:38:56;;;;;;;2.75;0.52;;;9.40;99.90;;;;;;15576563;22;20019;-34
2023/11/10 13:45:30;;;;;;;2.67;0.57;;;9.30;99.90;;;;;;15574855;22;20521;-34
2023/11/10 13:52:15;;;;;;;2.72;0.50;;;9.20;99.90;;;;;;15554273;22;20098;-34
2023/11/10 13:59:04;;;;;;;4.35;1.08;;;9.20;99.90;;;;;;15555362;22;20350;-34
2023/11/10 14:05:45;;;;;;;4.15;0.98;;;9.20;99.90;;;;;;15578005;22;20031;-34
2023/11/10 14:12:24;;;;;;;4.15;0.50;;;9.20;99.90;;;;;;15577468;22;20354;-34
2023/11/10 14:19:07;;;;;;;4.70;0.77;;;9.30;99.90;;;;;;15552560;22;20027;-34
2023/11/10 14:25:47;;;;;;;3.83;0.70;;;9.30;99.90;;;;;;15579678;22;20154;-34
2023/11/10 14:32:31;;;;;;;7.65;0.80;;;9.30;99.90;;;;;;15583273;22;20047;-34
2023/11/10 14:39:27;;;;;;;5.32;0.80;;;9.30;99.90;;;;;;15580384;22;20483;-34
2023/11/10 14:46:08;;;;;;;3.03;0.50;;;9.30;99.90;;;;;;15577032;22;20020;-34
2023/11/10 14:52:55;;;;;;;5.20;0.90;;;9.30;99.90;;;;;;15580977;22;20031;-35
2023/11/10 14:59:31;;;;;;;7.32;2.15;;;9.30;99.90;;;;;;15577846;22;20116;-34
2023/11/10 15:06:20;;;;;;;2.30;0.50;;;9.10;99.90;;;;;;15581449;22;20034;-34
2023/11/10 15:13:12;;;;;;;1.63;0.50;;;8.80;99.90;;;;;;15557954;22;20131;-34
2023/11/10 15:19:55;;;;;;;1.52;0.70;;;8.60;99.90;;;;;;15576256;22;20016;-34
2023/11/10 15:26:32;;;;;;;4.05;0.85;;;8.40;99.90;;;;;;15581901;22;20030;-33
2023/11/10 15:33:17;;;;;;;7.50;0.90;;;8.10;99.90;;;;;;15571383;22;20337;-34
2023/11/10 15:39:52;;;;;;;3.50;0.90;;;8.00;99.90;;;;;;15580763;22;20023;-34
2023/11/10 15:46:26;;;;;;;2.95;0.63;;;7.90;99.90;;;;;;15579194;22;20020;-34
2023/11/10 15:52:45;;;;;;;2.58;0.98;;;7.80;99.90;;;;;;15556005;22;20401;-34
2023/11/10 15:59:01;;;;;;;2.92;1.05;;;7.80;99.90;;;;;;15554966;22;20016;-34
2023/11/10 16:05:27;;;;;;;2.33;0.80;;;7.80;99.90;;;;;;15580571;22;20458;-34
2023/11/10 16:11:45;;;;;;;3.53;0.85;;;7.80;99.90;;;;;;15580205;22;20020;-33
2023/11/10 16:18:22;;;;;;;4.35;0.90;;;7.70;99.90;;;;;;15573015;22;20030;-34
2023/11/10 16:24:45;;;;;;;3.78;0.90;;;7.70;99.90;;;;;;15556284;22;20020;-34
2023/11/10 16:31:13;;;;;;;3.03;1.40;;;7.70;99.90;;;;;;15578758;22;20170;-34
2023/11/10 16:37:27;;;;;;;;;;;7.70;99.90;;;;;;15577417;22;20091;-34
2023/11/10 16:44:16;;;;;;;3.70;0.90;;;7.80;99.90;;;;;;15575188;22;19916;-34
2023/11/10 16:50:39;;;;;;;4.35;0.90;;;7.80;99.90;;;;;;15578992;22;20035;-34
2023/11/10 16:56:49;;;;;;;2.42;0.70;;;7.80;99.90;;;;;;15552372;22;20071;-34
2023/11/10 17:03:15;;;;;;;4.88;0.68;;;7.80;99.90;;;;;;15576350;22;20095;-34
2023/11/10 17:09:46;;;;;;;1.75;0.70;;;7.80;99.90;;;;;;15579104;22;20552;-34
2023/11/10 17:16:16;;;;;;;4.82;0.80;;;7.80;99.90;;;;;;15576272;22;20023;-34
2023/11/10 17:22:45;;;;;;;4.78;0.95;;;7.80;99.90;;;;;;15581052;22;20020;-34
2023/11/10 17:29:10;;;;;;;;;;;7.80;99.90;;;;;;15583763;22;20034;-33
2023/11/10 17:35:44;;;;;;;2.13;1.00;;;7.70;99.90;;;;;;15578147;22;19923;-33
2023/11/10 17:42:15;;;;;;;4.55;1.10;;;7.70;99.90;;;;;;15581338;22;20090;-34
2023/11/10 17:48:32;;;;;;;4.47;0.90;;;7.80;99.90;;;;;;15577600;22;20034;-34
2023/11/10 17:54:51;;;;;;;4.35;1.30;;;7.70;99.90;;;;;;15552560;22;20034;-34
2023/11/10 18:01:11;;;;;;;3.10;0.88;;;7.70;99.90;;;;;;15574121;22;20038;-34
2023/11/10 18:07:47;;;;;;;2.60;1.03;;;7.60;99.90;;;;;;15580200;22;20024;-34
2023/11/10 18:14:11;;;;;;;5.25;1.10;;;7.60;99.90;;;;;;15579522;22;20360;-33
2023/11/10 18:20:46;;;;;;;5.88;1.25;;;7.60;99.90;;;;;;15576660;22;20563;-34
2023/11/10 18:27:21;;;;;;;5.45;1.25;;;7.60;99.90;;;;;;15555819;22;20031;-33
2023/11/10 18:33:58;;;;;;;2.50;1.05;;;7.70;99.90;;;;;;15575710;22;20349;-34
2023/11/10 18:40:28;;;;;;;6.90;1.73;;;7.50;99.90;;;;;;15571519;22;20030;-34
2023/11/10 18:46:52;;;;;;;5.57;1.35;;;7.50;99.90;;;;;;15541704;22;20034;-34
2023/11/10 18:53:16;;;;;;;3.75;1.40;;;7.50;99.90;;;;;;15551843;22;20545;-34
2023/11/10 18:59:38;;;;;;;5.55;1.60;;;7.60;99.90;;;;;;15575262;22;20023;-34
2023/11/10 19:06:16;;;;;;;7.27;1.80;;;7.60;99.90;;;;;;15544331;22;20081;-34
2023/11/10 19:12:36;;;;;;;3.60;1.40;;;7.60;99.90;;;;;;15578302;22;20030;-34
2023/11/10 19:19:02;;;;;;;5.07;1.40;;;7.60;99.90;;;;;;15582743;22;20030;-34
2023/11/10 19:25:14;;;;;;;3.90;1.25;;;7.60;99.90;;;;;;15581383;22;20389;-34
2023/11/10 19:31:41;;;;;;;4.57;1.48;;;7.60;99.90;;;;;;15554472;22;20576;-34
2023/11/10 19:38:13;;;;;;;3.95;1.38;;;7.60;99.90;;;;;;15580019;22;20428;-34
2023/11/10 19:44:44;;;;;;;3.30;1.17;;;7.60;99.90;;;;;;15581029;22;20059;-34
2023/11/10 19:51:34;;;;;;;8.63;2.70;;;7.60;99.90;;;;;;15577346;22;20015;-34
2023/11/10 19:58:23;;;;;;;5.35;1.40;;;7.70;99.90;;;;;;15583154;22;20406;-34
2023/11/10 20:05:10;;;;;;;6.10;1.60;;;7.60;99.90;;;;;;15597721;22;20370;-34
2023/11/10 20:11:48;;;;;;;4.28;1.08;;;7.60;99.90;;;;;;15580651;22;20027;-34
2023/11/10 20:18:23;;;;;;;3.72;1.40;;;7.70;99.90;;;;;;15579355;22;20469;-34
2023/11/10 20:24:55;;;;;;;6.72;1.70;;;7.70;99.90;;;;;;15579115;22;20016;-34
2023/11/10 20:31:28;;;;;;;6.95;1.52;;;7.60;99.90;;;;;;15558281;22;20501;-34
2023/11/10 20:38:03;;;;;;;5.50;1.63;;;7.60;99.90;;;;;;15579647;22;20346;-34
2023/11/10 20:44:37;;;;;;;2.88;1.17;;;7.70;99.90;;;;;;15574785;22;20081;-34
2023/11/10 20:51:13;;;;;;;4.50;1.58;;;7.70;99.90;;;;;;15575924;22;20516;-34
2023/11/10 20:57:48;;;;;;;2.83;1.33;;;7.60;99.90;;;;;;15579985;22;20022;-34
2023/11/10 21:04:09;;;;;;;3.67;1.45;;;7.70;99.90;;;;;;15580514;22;20020;-34
2023/11/10 21:10:35;;;;;;;3.47;1.20;;;7.60;99.90;;;;;;15580147;22;20023;-34
2023/11/10 21:16:53;;;;;;;4.70;1.20;;;7.60;99.90;;;;;;15553479;22;20023;-34
2023/11/10 21:23:31;;;;;;;5.60;1.45;;;7.70;99.90;;;;;;15578539;22;20015;-34
2023/11/10 21:30:08;;;;;;;2.88;1.20;;;7.60;99.90;;;;;;15555794;22;20161;-34
2023/11/10 21:36:38;;;;;;;4.30;1.30;;;7.70;99.90;;;;;;15577806;22;20020;-33
2023/11/10 21:43:20;;;;;;;6.13;1.50;;;7.60;99.90;;;;;;15552173;22;20103;-34
2023/11/10 21:50:08;;;;;;;3.28;1.00;;;7.70;99.90;;;;;;15555230;22;20035;-34
2023/11/10 21:56:32;;;;;;;6.82;1.30;;;7.60;99.90;;;;;;15576132;22;20059;-33
2023/11/10 22:03:01;;;;;;;7.82;1.13;;;7.60;99.90;;;;;;15577781;22;20019;-34
2023/11/10 22:09:36;;;;;;;4.93;1.20;;;7.50;99.90;;;;;;15577911;22;20051;-34
2023/11/10 22:16:09;;;;;;;3.38;1.10;;;7.50;99.90;;;;;;15575102;22;20028;-34
2023/11/10 22:22:55;;;;;;;5.68;1.15;;;7.50;99.90;;;;;;15577520;22;20472;-34
2023/11/10 22:29:22;;;;;;;7.47;1.40;;;7.50;99.90;;;;;;15576085;22;20034;-34
2023/11/10 22:35:40;;;;;;;3.42;1.10;;;7.50;99.90;;;;;;15577971;22;20039;-33
2023/11/10 22:41:50;;;;;;;4.32;1.20;;;7.50;99.90;;;;;;15575943;22;20043;-34
2023/11/10 22:48:06;;;;;;;3.20;1.40;;;7.50;99.90;;;;;;15579388;22;20102;-34
2023/11/10 22:54:29;;;;;;;8.38;1.70;;;7.50;99.90;;;;;;15579749;22;20019;-34
2023/11/10 23:00:51;;;;;;;5.38;1.58;;;7.50;99.90;;;;;;15555698;22;20354;-34
2023/11/10 23:07:02;;;;;;;3.88;1.02;;;7.40;99.90;;;;;;15581129;22;20028;-34
2023/11/10 23:13:24;;;;;;;5.43;1.00;;;7.30;99.90;;;;;;15579562;22;20095;-33
2023/11/10 23:19:44;;;;;;;3.78;1.20;;;7.40;99.90;;;;;;15568706;22;20016;-33
2023/11/10 23:25:59;;;;;;;6.07;1.10;;;7.40;99.90;;;;;;15578816;22;20150;-33
2023/11/10 23:32:14;;;;;;;6.97;1.50;;;7.50;99.90;;;;;;15581725;22;20365;-34
2023/11/10 23:38:28;;;;;;;4.47;1.50;;;7.60;99.90;;;;;;15579962;22;20024;-34
2023/11/10 23:44:40;;;;;;;5.55;1.80;;;7.60;99.90;;;;;;15553434;22;20028;-34
2023/11/10 23:51:04;;;;;;;4.53;1.58;;;7.60;99.90;;;;;;15582141;22;20070;-34
2023/11/10 23:57:32;;;;;;;5.82;1.48;;;7.60;99.90;;;;;;15579685;22;20095;-34
